Time;durP1;ratioP1;P1;durP2;ratioP2;P2;SDS_P1;SDS_P2;PMS_P1;PMS_P2;Temp;Humidity;BMP_temperature;BMP_pressure;BME280_temperature;BME280_humidity;BME280_pressure;Samples;Min_cycle;Max_cycle;Signal;HPM_P1;HPM_P2
2021/06/15 00:34:24;;;;;;;7.45;5.47;;;14.60;99.90;;;;;;5250947;23;20043;-75
2021/06/15 00:36:50;;;;;;;7.25;5.90;;;14.90;99.90;;;;;;4975397;28;20047;-75
2021/06/15 00:39:16;;;;;;;7.55;5.95;;;14.90;99.90;;;;;;4966668;28;20050;-76
2021/06/15 00:41:43;;;;;;;7.90;6.15;;;15.00;99.90;;;;;;4974799;28;20061;-76
2021/06/15 00:44:10;;;;;;;6.90;6.03;;;14.90;99.90;;;;;;4976066;28;20050;-76
2021/06/15 00:46:37;;;;;;;7.88;6.68;;;14.70;99.90;;;;;;4975412;28;20046;-74
2021/06/15 00:49:03;;;;;;;7.80;6.70;;;14.60;99.90;;;;;;4964994;28;20362;-76
2021/06/15 00:51:30;;;;;;;8.05;5.72;;;14.60;99.90;;;;;;4973655;28;20119;-76
2021/06/15 00:53:56;;;;;;;10.30;6.03;;;14.80;99.90;;;;;;4975138;28;20057;-75
2021/06/15 00:56:23;;;;;;;6.97;6.28;;;15.00;99.90;;;;;;4955313;29;20051;-76
2021/06/15 00:58:51;;;;;;;9.10;5.65;;;15.00;99.90;;;;;;4972024;28;20508;-76
2021/06/15 01:01:20;;;;;;;8.70;6.40;;;14.90;99.90;;;;;;4960398;28;20370;-77
2021/06/15 01:03:47;;;;;;;7.97;6.63;;;14.50;99.90;;;;;;4973431;28;20042;-76
2021/06/15 01:06:43;;;;;;;10.00;6.80;;;14.30;99.90;;;;;;4956554;28;20388;-75
2021/06/15 01:09:51;;;;;;;6.97;6.28;;;14.40;99.90;;;;;;4971499;28;20080;-76
2021/06/15 01:12:45;;;;;;;9.30;6.85;;;14.30;99.90;;;;;;4966414;28;20055;-75
2021/06/15 01:15:36;;;;;;;8.30;6.28;;;14.50;99.90;;;;;;4972117;28;20043;-75
2021/06/15 01:18:17;;;;;;;9.68;6.50;;;14.40;99.90;;;;;;4974704;28;20473;-76
2021/06/15 01:20:52;;;;;;;9.32;6.18;;;14.10;99.90;;;;;;4973375;28;20097;-76
2021/06/15 01:23:22;;;;;;;10.00;6.35;;;13.90;99.90;;;;;;4974275;28;20038;-76
2021/06/15 01:26:03;;;;;;;10.87;6.60;;;13.90;99.90;;;;;;4973219;28;20061;-76
2021/06/15 01:28:44;;;;;;;8.75;6.10;;;13.90;99.90;;;;;;4973435;28;20050;-76
2021/06/15 01:31:28;;;;;;;9.80;6.70;;;13.90;99.90;;;;;;4974792;28;20457;-76
2021/06/15 01:34:08;;;;;;;10.30;6.13;;;14.00;99.90;;;;;;4973918;28;20057;-76
2021/06/15 01:36:49;;;;;;;11.40;6.63;;;13.80;99.90;;;;;;4960337;28;20039;-76
2021/06/15 01:39:20;;;;;;;8.40;7.32;;;13.70;99.90;;;;;;4966901;28;20053;-76
2021/06/15 01:42:13;;;;;;;9.32;7.25;;;13.80;99.90;;;;;;4960515;28;20042;-76
2021/06/15 01:44:44;;;;;;;9.07;6.68;;;13.90;99.90;;;;;;4972995;28;20118;-76
2021/06/15 01:47:12;;;;;;;11.98;7.57;;;13.90;99.90;;;;;;4973708;28;20043;-76
2021/06/15 01:49:52;;;;;;;13.45;7.57;;;13.90;99.90;;;;;;4974518;28;20484;-74
2021/06/15 01:52:24;;;;;;;7.75;6.05;;;13.90;99.90;;;;;;4973303;28;20397;-75
2021/06/15 01:54:52;;;;;;;9.63;6.60;;;13.70;99.90;;;;;;4972939;28;20051;-75
2021/06/15 01:57:24;;;;;;;9.88;6.65;;;13.50;99.90;;;;;;4973554;28;20066;-76
2021/06/15 02:00:06;;;;;;;9.15;6.50;;;13.50;99.90;;;;;;4973133;28;20042;-75
2021/06/15 02:02:36;;;;;;;12.13;8.07;;;13.60;99.90;;;;;;4972498;28;20051;-75
2021/06/15 02:05:07;;;;;;;11.10;6.50;;;13.60;99.90;;;;;;4963942;28;20055;-75
2021/06/15 02:07:43;;;;;;;11.68;7.22;;;13.70;99.90;;;;;;4968787;28;20039;-74
2021/06/15 02:10:12;;;;;;;9.98;7.18;;;13.60;99.90;;;;;;4955084;28;20047;-75
2021/06/15 02:13:00;;;;;;;10.15;6.95;;;13.60;99.90;;;;;;4973439;28;20057;-76
2021/06/15 02:15:47;;;;;;;15.25;7.22;;;13.40;99.90;;;;;;4973638;28;20046;-76
2021/06/15 02:18:30;;;;;;;9.63;6.70;;;13.20;99.90;;;;;;4987298;28;20392;-75
2021/06/15 02:21:04;;;;;;;7.22;6.53;;;13.30;99.90;;;;;;4954099;28;20392;-73
2021/06/15 02:23:32;;;;;;;9.80;6.97;;;13.40;99.90;;;;;;4972972;28;20039;-75
2021/06/15 02:26:05;;;;;;;9.82;6.78;;;13.40;99.90;;;;;;4955013;28;20477;-75
2021/06/15 02:28:37;;;;;;;10.52;7.40;;;13.40;99.90;;;;;;4938553;29;20043;-75
2021/06/15 02:31:07;;;;;;;8.77;6.13;;;13.40;99.90;;;;;;4971400;28;20051;-76
2021/06/15 02:33:44;;;;;;;9.27;7.55;;;13.40;99.90;;;;;;5107002;27;20436;-76
2021/06/15 02:36:17;;;;;;;8.23;6.38;;;13.50;99.90;;;;;;5088446;28;20036;-76
2021/06/15 02:38:58;;;;;;;6.47;5.68;;;13.50;99.90;;;;;;5088481;28;20048;-76
2021/06/15 02:41:24;;;;;;;;;;;13.60;99.90;;;;;;5108747;28;20388;-75
2021/06/15 02:43:59;;;;;;;10.40;6.60;;;13.50;99.90;;;;;;5102541;28;19909;-75
2021/06/15 02:46:28;;;;;;;10.40;6.65;;;13.40;99.90;;;;;;5090119;28;20036;-76
2021/06/15 02:48:58;;;;;;;9.68;6.55;;;13.30;99.90;;;;;;5107391;28;20047;-76
2021/06/15 02:51:30;;;;;;;8.27;5.75;;;13.30;99.90;;;;;;5088382;28;20051;-74
2021/06/15 02:54:18;;;;;;;9.45;6.78;;;13.30;99.90;;;;;;5106829;28;20384;-75
2021/06/15 02:56:49;;;;;;;10.45;7.35;;;13.20;99.90;;;;;;5089313;28;20413;-75
2021/06/15 02:59:17;;;;;;;11.05;7.57;;;13.10;99.90;;;;;;5103046;28;20036;-75
2021/06/15 03:01:52;;;;;;;8.38;7.00;;;13.10;99.90;;;;;;5087225;28;20044;-77
2021/06/15 03:04:24;;;;;;;8.43;6.78;;;13.10;99.90;;;;;;5093014;28;20051;-77
2021/06/15 03:06:50;;;;;;;7.97;6.47;;;13.20;99.90;;;;;;5095298;28;20036;-77
2021/06/15 03:09:18;;;;;;;9.18;6.97;;;13.30;99.90;;;;;;5099564;28;20040;-75
2021/06/15 03:11:54;;;;;;;11.18;6.75;;;13.30;99.90;;;;;;5088876;28;20071;-76
2021/06/15 03:14:24;;;;;;;8.32;6.20;;;13.20;99.90;;;;;;5088289;28;20055;-77
2021/06/15 03:16:55;;;;;;;8.32;6.57;;;13.20;99.90;;;;;;5088196;28;20063;-77
2021/06/15 03:19:48;;;;;;;10.93;7.60;;;13.20;99.90;;;;;;5089035;28;20373;-75
2021/06/15 03:22:22;;;;;;;10.68;6.53;;;13.00;99.90;;;;;;5070751;28;20043;-75
2021/06/15 03:24:55;;;;;;;11.05;7.43;;;12.80;99.90;;;;;;5098965;28;20040;-76
2021/06/15 03:27:38;;;;;;;8.00;6.63;;;12.80;99.90;;;;;;5089078;28;20032;-75
2021/06/15 03:30:14;;;;;;;9.15;7.32;;;12.90;99.90;;;;;;5088073;28;20526;-75
2021/06/15 03:32:51;;;;;;;8.88;6.60;;;12.80;99.90;;;;;;5098936;28;20065;-76
2021/06/15 03:35:21;;;;;;;10.07;7.03;;;12.90;99.90;;;;;;5102801;28;20051;-75
2021/06/15 03:37:58;;;;;;;11.13;6.72;;;12.80;99.90;;;;;;5086637;28;20051;-74
2021/06/15 03:40:25;;;;;;;8.15;6.50;;;12.70;99.90;;;;;;5093738;28;20401;-75
2021/06/15 03:42:53;;;;;;;9.77;7.07;;;12.90;99.90;;;;;;5102808;28;20047;-76
2021/06/15 03:45:25;;;;;;;10.30;6.60;;;12.90;99.90;;;;;;5081668;28;20033;-76
2021/06/15 03:47:53;;;;;;;10.23;6.53;;;12.80;99.90;;;;;;5074431;28;20040;-77
2021/06/15 03:50:22;;;;;;;8.70;7.45;;;12.80;99.90;;;;;;5074565;28;20377;-75
2021/06/15 03:52:52;;;;;;;7.82;5.97;;;13.00;99.90;;;;;;5087287;28;20044;-76
2021/06/15 03:55:23;;;;;;;8.80;7.15;;;13.00;99.90;;;;;;5075299;28;20346;-76
2021/06/15 03:57:50;;;;;;;9.18;6.63;;;13.00;99.90;;;;;;5082627;28;20377;-76
2021/06/15 04:00:23;;;;;;;8.93;6.63;;;12.90;99.90;;;;;;5079908;28;20033;-75
2021/06/15 04:02:53;;;;;;;8.93;6.47;;;13.00;99.90;;;;;;5074767;28;20318;-76
2021/06/15 04:05:26;;;;;;;8.98;7.00;;;13.10;99.90;;;;;;5074303;28;20044;-76
2021/06/15 04:08:00;;;;;;;6.75;6.05;;;13.10;99.90;;;;;;5074251;28;20033;-77
2021/06/15 04:10:27;;;;;;;8.38;7.03;;;13.10;99.90;;;;;;5074291;28;20373;-77
2021/06/15 04:12:55;;;;;;;8.88;6.97;;;13.20;99.90;;;;;;5073889;28;20041;-76
2021/06/15 04:15:25;;;;;;;7.60;6.50;;;13.30;99.90;;;;;;5080271;28;20028;-76
2021/06/15 04:17:53;;;;;;;8.70;5.93;;;13.40;99.90;;;;;;5079103;28;20033;-77
2021/06/15 04:20:23;;;;;;;7.32;5.75;;;14.00;99.90;;;;;;5076399;28;20028;-76
2021/06/15 04:22:52;;;;;;;4.80;4.22;;;15.00;99.90;;;;;;5092094;28;20587;-76
2021/06/15 04:25:22;;;;;;;8.98;4.20;;;15.90;99.90;;;;;;5074323;28;20032;-76
2021/06/15 04:27:49;;;;;;;6.53;4.43;;;16.90;99.90;;;;;;5073688;28;20036;-74
2021/06/15 04:30:19;;;;;;;4.47;3.30;;;17.90;96.60;;;;;;5074174;28;20020;-75
2021/06/15 04:32:57;;;;;;;6.57;3.87;;;18.70;94.00;;;;;;5073158;28;20476;-75
2021/06/15 04:35:46;;;;;;;6.00;3.72;;;20.00;90.20;;;;;;5073897;28;20504;-75
2021/06/15 04:38:13;;;;;;;4.78;4.35;;;20.40;83.00;;;;;;5072990;28;20477;-76
2021/06/15 04:40:44;;;;;;;6.18;4.13;;;20.40;81.30;;;;;;5078918;28;20044;-75
2021/06/15 04:43:19;;;;;;;6.45;3.92;;;20.20;82.10;;;;;;5080205;28;20339;-77
2021/06/15 04:45:49;;;;;;;5.30;4.20;;;20.80;80.10;;;;;;5079065;28;20030;-76
2021/06/15 04:48:26;;;;;;;5.75;4.03;;;21.50;78.30;;;;;;5089961;28;20020;-76
2021/06/15 04:51:01;;;;;;;7.97;4.78;;;22.20;73.30;;;;;;5071900;28;20088;-75
2021/06/15 04:53:34;;;;;;;10.95;4.25;;;21.90;74.00;;;;;;5087930;28;20047;-75
2021/06/15 04:56:02;;;;;;;5.50;3.90;;;21.70;74.30;;;;;;5072968;28;20490;-76
2021/06/15 04:58:32;;;;;;;7.90;4.05;;;22.80;73.70;;;;;;5082693;28;20040;-76
2021/06/15 05:01:00;;;;;;;6.82;4.25;;;23.70;68.40;;;;;;5091495;28;20106;-75
2021/06/15 05:03:32;;;;;;;8.07;4.35;;;24.40;66.20;;;;;;5087515;28;20044;-75
2021/06/15 05:06:07;;;;;;;6.72;3.92;;;24.10;66.80;;;;;;5073401;28;20044;-75
2021/06/15 05:08:46;;;;;;;11.82;4.43;;;23.90;66.60;;;;;;5074551;28;20690;-75
2021/06/15 05:11:13;;;;;;;6.65;4.00;;;24.30;65.00;;;;;;5086969;28;20478;-76
2021/06/15 05:13:43;;;;;;;6.88;3.85;;;24.80;63.60;;;;;;5076576;28;20063;-76
2021/06/15 05:16:11;;;;;;;5.13;4.00;;;24.50;64.20;;;;;;5083577;28;20044;-75
2021/06/15 05:18:37;;;;;;;5.53;4.30;;;23.90;65.40;;;;;;5072738;28;20032;-76
2021/06/15 05:21:10;;;;;;;8.63;4.80;;;23.40;67.20;;;;;;5072967;28;20145;-76
2021/06/15 05:23:43;;;;;;;5.82;4.70;;;23.60;66.40;;;;;;5082448;28;20036;-75
2021/06/15 05:26:10;;;;;;;6.13;4.53;;;24.10;66.00;;;;;;5072663;28;20032;-74
2021/06/15 05:28:37;;;;;;;6.10;5.07;;;24.10;64.20;;;;;;5072085;28;20492;-74
2021/06/15 05:31:03;;;;;;;8.75;5.15;;;23.90;65.10;;;;;;5071911;28;20051;-74
2021/06/15 05:33:29;;;;;;;5.63;4.57;;;23.70;65.50;;;;;;5072296;28;20071;-75
2021/06/15 05:35:58;;;;;;;7.00;4.50;;;24.40;63.90;;;;;;5078575;28;20051;-75
2021/06/15 05:38:25;;;;;;;6.35;4.65;;;23.90;63.90;;;;;;5075640;28;20040;-76
2021/06/15 05:40:52;;;;;;;8.13;5.07;;;24.10;63.80;;;;;;5072335;28;20615;-77
2021/06/15 05:43:18;;;;;;;8.52;5.47;;;22.60;67.80;;;;;;5076419;28;20040;-76
2021/06/15 05:45:44;;;;;;;4.90;4.47;;;22.20;69.30;;;;;;5084913;28;20035;-77
2021/06/15 05:48:11;;;;;;;8.25;4.68;;;22.80;68.00;;;;;;5074285;28;20028;-77
2021/06/15 05:50:37;;;;;;;6.03;4.13;;;23.00;67.70;;;;;;5087079;28;20028;-74
2021/06/15 05:53:06;;;;;;;6.70;4.88;;;22.30;69.80;;;;;;5075536;28;20079;-74
2021/06/15 05:55:33;;;;;;;10.97;5.77;;;21.70;71.80;;;;;;5072840;28;20486;-78
2021/06/15 05:57:59;;;;;;;10.20;5.15;;;21.20;72.50;;;;;;5081770;28;20032;-75
2021/06/15 06:00:25;;;;;;;8.00;5.55;;;21.20;73.20;;;;;;5082833;28;20036;-75
2021/06/15 06:02:52;;;;;;;7.53;5.88;;;21.80;71.90;;;;;;5072754;28;20272;-76
2021/06/15 06:10:30;;;;;;;7.78;4.88;;;22.20;70.70;;;;;;5072276;28;20044;-76
2021/06/15 06:12:56;;;;;;;7.15;5.28;;;23.30;69.30;;;;;;5071820;28;20040;-77
2021/06/15 06:15:22;;;;;;;8.68;5.63;;;24.00;66.80;;;;;;5071572;28;20036;-77
2021/06/15 06:17:49;;;;;;;6.32;5.05;;;23.10;68.50;;;;;;5071843;28;20031;-75
2021/06/15 06:20:18;;;;;;;6.88;4.85;;;22.60;69.10;;;;;;5072368;28;20035;-74
2021/06/15 06:22:44;;;;;;;11.68;6.00;;;22.50;69.30;;;;;;5071624;28;20043;-74
2021/06/15 06:25:13;;;;;;;6.32;4.97;;;23.10;68.70;;;;;;5071929;28;20040;-73
2021/06/15 06:27:40;;;;;;;7.50;4.50;;;23.10;67.80;;;;;;5071595;28;20039;-73
2021/06/15 06:30:07;;;;;;;8.30;4.72;;;23.70;66.40;;;;;;5072440;28;20039;-73
2021/06/15 06:32:36;;;;;;;5.50;4.05;;;24.50;65.40;;;;;;5071613;28;20077;-73
2021/06/15 06:35:04;;;;;;;7.45;4.03;;;24.80;64.00;;;;;;5072089;28;20056;-73
2021/06/15 06:37:30;;;;;;;6.45;4.03;;;24.40;64.40;;;;;;5071998;28;20025;-74
2021/06/15 06:39:57;;;;;;;7.25;4.47;;;23.70;66.20;;;;;;5071524;28;20040;-73
2021/06/15 06:42:23;;;;;;;9.73;4.07;;;23.80;66.50;;;;;;5071519;28;20048;-74
2021/06/15 06:44:49;;;;;;;8.15;4.25;;;24.50;64.80;;;;;;5071649;28;20039;-73
2021/06/15 06:47:15;;;;;;;6.72;4.05;;;25.20;63.50;;;;;;5071881;28;20032;-73
2021/06/15 06:49:41;;;;;;;12.23;4.65;;;24.30;65.30;;;;;;5088933;28;20039;-73
2021/06/15 06:52:08;;;;;;;8.65;3.47;;;24.00;65.80;;;;;;5077859;28;20036;-74
2021/06/15 06:54:34;;;;;;;6.97;4.50;;;24.50;64.40;;;;;;5082220;28;20032;-73
2021/06/15 06:57:00;;;;;;;5.38;3.88;;;25.60;62.10;;;;;;5079523;28;20424;-74
2021/06/15 06:59:26;;;;;;;8.90;4.43;;;25.50;62.60;;;;;;5084945;28;20059;-74
2021/06/15 07:01:53;;;;;;;6.70;4.00;;;24.90;63.00;;;;;;5071420;28;20036;-74
2021/06/15 07:04:19;;;;;;;10.55;4.18;;;24.40;63.10;;;;;;5089135;28;20047;-74
2021/06/15 07:06:45;;;;;;;9.27;4.13;;;24.20;64.10;;;;;;5078873;28;20039;-75
2021/06/15 07:09:12;;;;;;;7.43;4.13;;;23.40;65.40;;;;;;5072911;28;20029;-75
2021/06/15 07:11:38;;;;;;;4.28;3.85;;;23.70;65.60;;;;;;5073709;28;20025;-74
2021/06/15 07:14:04;;;;;;;7.85;4.10;;;24.20;64.40;;;;;;5087799;28;20405;-74
2021/06/15 07:16:30;;;;;;;8.25;4.85;;;24.50;63.30;;;;;;5071560;28;20364;-74
2021/06/15 07:18:56;;;;;;;12.40;4.40;;;24.60;63.30;;;;;;5072418;28;20353;-73
2021/06/15 07:21:23;;;;;;;7.45;4.13;;;24.40;64.10;;;;;;5075524;28;20037;-74
2021/06/15 07:23:49;;;;;;;8.38;4.20;;;24.20;64.30;;;;;;5074472;28;20036;-73
2021/06/15 07:26:15;;;;;;;10.10;4.35;;;23.80;65.20;;;;;;5076885;28;20040;-74
2021/06/15 07:28:41;;;;;;;7.95;4.30;;;24.20;64.70;;;;;;5092499;28;20028;-74
2021/06/15 07:31:08;;;;;;;9.52;4.00;;;24.20;64.60;;;;;;5075081;28;20386;-74
2021/06/15 07:33:34;;;;;;;5.95;3.72;;;24.10;65.30;;;;;;5074670;28;20052;-74
2021/06/15 07:36:00;;;;;;;7.53;3.83;;;24.60;64.00;;;;;;5090475;28;20029;-74
2021/06/15 07:38:26;;;;;;;7.22;3.22;;;25.00;61.80;;;;;;5075132;28;20032;-73
2021/06/15 07:40:53;;;;;;;7.43;3.95;;;25.50;61.40;;;;;;5082753;28;20036;-74
2021/06/15 07:43:19;;;;;;;7.05;3.90;;;25.00;61.30;;;;;;5087887;28;20490;-74
2021/06/15 07:45:45;;;;;;;6.65;3.40;;;25.30;62.50;;;;;;5083467;28;20035;-73
2021/06/15 07:48:11;;;;;;;7.25;3.30;;;27.60;58.40;;;;;;5074802;28;20040;-73
2021/06/15 07:50:38;;;;;;;9.77;3.42;;;27.30;56.70;;;;;;5085759;28;20377;-74
2021/06/15 07:53:05;;;;;;;7.90;3.58;;;26.10;59.40;;;;;;5083730;28;20056;-74
2021/06/15 07:55:31;;;;;;;7.00;3.13;;;26.80;58.70;;;;;;5087764;28;20039;-75
2021/06/15 07:57:58;;;;;;;6.40;3.60;;;28.10;56.40;;;;;;5076352;28;20485;-75
2021/06/15 08:00:25;;;;;;;5.38;3.38;;;28.90;55.90;;;;;;5088358;28;20031;-73
2021/06/15 08:02:51;;;;;;;6.30;3.17;;;28.80;54.30;;;;;;5084081;28;20454;-74
2021/06/15 08:05:18;;;;;;;7.45;3.78;;;27.80;56.10;;;;;;5074455;28;20029;-75
2021/06/15 08:07:49;;;;;;;7.13;3.13;;;27.60;56.40;;;;;;5072697;28;20045;-75
2021/06/15 08:10:18;;;;;;;6.93;3.42;;;27.40;56.70;;;;;;5074452;28;20040;-74
2021/06/15 08:12:46;;;;;;;9.38;3.85;;;27.30;56.30;;;;;;5073888;28;20048;-72
2021/06/15 08:15:13;;;;;;;6.45;3.20;;;26.30;57.30;;;;;;5075278;28;20037;-73
2021/06/15 08:17:39;;;;;;;8.20;3.25;;;26.20;57.40;;;;;;5092462;28;20504;-74
2021/06/15 08:20:07;;;;;;;7.10;3.60;;;27.80;55.00;;;;;;5074325;28;20028;-73
2021/06/15 08:22:33;;;;;;;8.02;2.85;;;27.60;56.20;;;;;;5074593;28;20028;-73
2021/06/15 08:24:59;;;;;;;9.15;2.72;;;28.30;54.80;;;;;;5073810;28;20029;-74
2021/06/15 08:27:25;;;;;;;5.97;3.20;;;28.00;54.90;;;;;;5087456;28;20025;-74
2021/06/15 08:29:51;;;;;;;5.13;2.92;;;27.10;55.70;;;;;;5079547;28;20040;-75
2021/06/15 08:32:18;;;;;;;6.45;3.78;;;27.70;55.20;;;;;;5089853;28;20045;-74
2021/06/15 08:34:44;;;;;;;4.80;2.58;;;27.10;56.30;;;;;;5073872;28;20036;-74
2021/06/15 08:37:10;;;;;;;7.65;3.40;;;27.20;55.50;;;;;;5073257;28;20043;-74
2021/06/15 08:39:37;;;;;;;5.43;3.10;;;27.70;54.30;;;;;;5083198;28;20055;-73
2021/06/15 08:42:03;;;;;;;5.93;3.15;;;28.10;53.00;;;;;;5074499;28;20036;-74
2021/06/15 08:44:29;;;;;;;6.60;2.85;;;27.90;53.30;;;;;;5073998;28;20032;-74
2021/06/15 08:46:59;;;;;;;8.73;3.20;;;28.20;53.60;;;;;;5074000;28;20037;-73
2021/06/15 08:49:25;;;;;;;5.00;2.38;;;27.60;54.20;;;;;;5073904;28;20373;-74
2021/06/15 08:51:52;;;;;;;7.13;3.53;;;27.40;53.60;;;;;;5073304;28;20055;-74
2021/06/15 08:54:19;;;;;;;4.43;2.67;;;27.20;53.90;;;;;;5086470;28;20380;-75
2021/06/15 08:56:46;;;;;;;5.78;2.83;;;27.10;54.90;;;;;;5075899;28;20051;-74
2021/06/15 08:59:26;;;;;;;3.25;2.42;;;27.10;55.20;;;;;;5072933;28;20367;-74
2021/06/15 09:01:58;;;;;;;7.82;3.20;;;27.80;53.00;;;;;;5073089;28;20037;-73
2021/06/15 09:04:25;;;;;;;5.22;2.22;;;28.10;52.80;;;;;;5091242;28;20043;-74
2021/06/15 09:06:56;;;;;;;8.05;2.88;;;28.30;51.60;;;;;;5074321;28;20040;-74
2021/06/15 09:09:23;;;;;;;5.65;2.63;;;28.90;51.80;;;;;;5077940;28;20377;-75
2021/06/15 09:11:55;;;;;;;4.30;2.50;;;28.70;52.00;;;;;;5080985;28;20371;-75
2021/06/15 09:14:47;;;;;;;6.93;2.97;;;28.10;52.70;;;;;;5073132;28;20033;-74
2021/06/15 09:17:30;;;;;;;8.75;2.65;;;28.50;51.40;;;;;;5073107;28;20045;-73
2021/06/15 09:20:31;;;;;;;4.18;2.25;;;29.20;49.50;;;;;;5072656;28;20036;-73
2021/06/15 09:23:11;;;;;;;6.22;2.60;;;28.30;50.70;;;;;;5060421;28;20049;-76
2021/06/15 09:25:37;;;;;;;7.20;2.15;;;28.00;51.10;;;;;;5073204;28;20041;-72
2021/06/15 09:28:20;;;;;;;4.00;2.40;;;27.70;51.30;;;;;;5072460;28;20482;-74
2021/06/15 09:31:08;;;;;;;4.70;1.92;;;27.70;51.10;;;;;;5072756;28;20047;-73
2021/06/15 09:33:47;;;;;;;5.47;2.53;;;28.30;50.20;;;;;;5088307;28;20052;-75
2021/06/15 09:36:13;;;;;;;5.00;2.08;;;28.30;50.10;;;;;;5072771;28;20499;-76
2021/06/15 09:39:00;;;;;;;6.03;2.20;;;27.90;50.20;;;;;;5089064;28;20040;-74
2021/06/15 09:41:45;;;;;;;6.97;2.35;;;28.00;50.60;;;;;;5076710;28;20036;-76
2021/06/15 09:44:26;;;;;;;5.85;2.22;;;27.50;50.10;;;;;;5072827;28;20032;-74
2021/06/15 09:46:55;;;;;;;9.85;2.05;;;27.60;49.70;;;;;;5072249;28;20032;-74
2021/06/15 09:49:43;;;;;;;4.80;2.00;;;27.80;50.40;;;;;;5079004;28;20039;-75
2021/06/15 09:52:15;;;;;;;4.60;2.13;;;28.00;49.70;;;;;;5087994;28;20045;-74
2021/06/15 09:55:05;;;;;;;5.00;2.42;;;29.10;49.70;;;;;;5073366;28;20032;-73
2021/06/15 09:57:34;;;;;;;3.60;2.20;;;29.20;48.50;;;;;;5080562;28;20032;-74
2021/06/15 10:00:09;;;;;;;6.22;2.35;;;29.10;49.00;;;;;;5088576;28;20492;-74
2021/06/15 10:02:46;;;;;;;9.88;2.78;;;28.90;49.10;;;;;;5072593;28;20048;-73
2021/06/15 10:05:27;;;;;;;3.35;2.15;;;28.70;49.80;;;;;;5072676;28;20393;-73
2021/06/15 10:07:57;;;;;;;4.10;2.67;;;28.30;49.70;;;;;;5072150;28;20033;-75
2021/06/15 10:10:26;;;;;;;5.72;2.22;;;28.40;49.70;;;;;;5072420;28;20035;-74
2021/06/15 10:12:53;;;;;;;4.53;2.92;;;28.80;49.60;;;;;;5090226;28;20035;-74
2021/06/15 10:15:20;;;;;;;5.40;2.70;;;29.20;49.00;;;;;;5076544;28;20382;-75
2021/06/15 10:17:46;;;;;;;13.50;11.75;;;28.70;49.10;;;;;;5071973;28;20047;-76
2021/06/15 10:20:22;;;;;;;8.20;6.18;;;28.90;49.70;;;;;;5072285;28;20416;-77
2021/06/15 10:22:50;;;;;;;6.15;3.17;;;28.40;49.20;;;;;;5071991;28;20371;-73
2021/06/15 10:25:18;;;;;;;5.63;3.33;;;28.30;49.70;;;;;;5072170;28;20055;-74
2021/06/15 10:27:46;;;;;;;5.32;2.15;;;28.40;49.90;;;;;;5085246;28;20032;-75
2021/06/15 10:30:16;;;;;;;4.75;3.00;;;28.40;49.80;;;;;;5072065;28;20501;-75
2021/06/15 10:33:00;;;;;;;5.50;2.80;;;28.20;49.30;;;;;;5071673;28;20052;-74
2021/06/15 10:35:45;;;;;;;6.63;3.00;;;28.10;49.50;;;;;;5076363;28;20044;-76
2021/06/15 10:38:39;;;;;;;5.35;2.75;;;27.80;50.30;;;;;;5073518;28;20037;-74
2021/06/15 10:41:05;;;;;;;7.65;2.70;;;28.20;49.60;;;;;;5072274;28;20040;-73
2021/06/15 10:43:37;;;;;;;3.90;2.63;;;28.10;49.70;;;;;;5078955;28;20502;-74
2021/06/15 10:46:25;;;;;;;5.93;2.17;;;27.90;50.20;;;;;;5081162;28;20031;-74
2021/06/15 10:49:01;;;;;;;6.82;2.58;;;28.20;50.20;;;;;;5071614;28;20036;-75
2021/06/15 10:51:35;;;;;;;6.03;2.65;;;28.30;50.00;;;;;;5072104;28;20028;-74
2021/06/15 10:54:23;;;;;;;4.18;2.60;;;28.30;50.00;;;;;;5072707;28;20052;-74
2021/06/15 10:57:17;;;;;;;5.30;2.55;;;28.70;49.00;;;;;;5075468;28;20046;-74
2021/06/15 11:00:11;;;;;;;6.10;2.50;;;28.80;50.10;;;;;;5075336;28;20033;-74
2021/06/15 11:02:38;;;;;;;8.05;2.90;;;28.90;49.30;;;;;;5075980;28;20033;-75
2021/06/15 11:05:51;;;;;;;4.22;3.03;;;29.00;49.20;;;;;;5075244;28;20032;-75
2021/06/15 11:08:30;;;;;;;6.47;2.55;;;29.00;49.20;;;;;;5075771;28;20032;-74
2021/06/15 11:10:58;;;;;;;5.20;2.53;;;29.10;49.80;;;;;;5075759;28;20389;-75
2021/06/15 11:14:05;;;;;;;5.45;2.40;;;29.50;51.30;;;;;;5075422;28;20044;-75
2021/06/15 11:16:44;;;;;;;6.85;2.80;;;29.90;48.90;;;;;;5075260;28;20041;-75
2021/06/15 11:19:13;;;;;;;5.30;3.17;;;29.30;49.10;;;;;;5075578;28;20331;-74
2021/06/15 11:21:46;;;;;;;;;;;29.00;49.70;;;;;;5076008;28;20371;-76
2021/06/15 11:24:21;;;;;;;4.40;3.13;;;28.90;49.70;;;;;;5075551;28;19935;-77
2021/06/15 11:26:55;;;;;;;5.32;2.78;;;28.60;50.20;;;;;;5074951;28;20053;-74
2021/06/15 11:29:36;;;;;;;4.57;2.72;;;28.90;50.40;;;;;;5074588;28;20052;-75
2021/06/15 11:32:22;;;;;;;5.93;2.63;;;29.20;49.00;;;;;;5074558;28;20401;-74
2021/06/15 11:34:54;;;;;;;3.97;2.63;;;29.30;48.80;;;;;;5074734;28;20350;-75
2021/06/15 11:37:48;;;;;;;4.25;2.28;;;29.30;46.60;;;;;;5075171;28;20044;-75
2021/06/15 11:40:27;;;;;;;6.90;2.90;;;28.80;46.20;;;;;;5072803;28;20033;-76
2021/06/15 11:43:17;;;;;;;5.20;2.83;;;29.00;48.20;;;;;;5074466;28;20040;-74
2021/06/15 11:45:50;;;;;;;4.35;2.60;;;28.90;49.60;;;;;;5074522;28;20025;-74
2021/06/15 11:48:19;;;;;;;4.60;3.15;;;29.20;48.90;;;;;;5075138;28;20388;-76
2021/06/15 11:50:47;;;;;;;3.78;2.47;;;29.50;48.40;;;;;;5074478;28;20039;-76
2021/06/15 11:53:19;;;;;;;6.68;3.03;;;29.40;48.20;;;;;;5079245;28;20032;-75
2021/06/15 11:55:58;;;;;;;5.47;2.72;;;29.70;46.10;;;;;;5086935;28;20028;-73
2021/06/15 11:58:27;;;;;;;4.15;2.30;;;29.80;48.80;;;;;;5075373;28;20036;-73
2021/06/15 12:01:03;;;;;;;3.90;2.60;;;29.70;48.40;;;;;;5085926;28;20043;-74
2021/06/15 12:03:35;;;;;;;4.97;2.65;;;29.40;48.60;;;;;;5079878;28;20053;-73
2021/06/15 12:06:01;;;;;;;5.68;2.47;;;29.30;49.00;;;;;;5073814;28;20032;-74
2021/06/15 12:08:32;;;;;;;6.90;2.85;;;29.50;49.70;;;;;;5074199;28;20055;-74
2021/06/15 12:11:00;;;;;;;5.97;2.65;;;29.70;48.70;;;;;;5083098;28;20035;-74
2021/06/15 12:13:31;;;;;;;6.18;3.22;;;29.70;47.90;;;;;;5080607;28;20036;-74
2021/06/15 12:16:04;;;;;;;5.03;2.60;;;29.50;49.10;;;;;;5073907;28;20465;-75
2021/06/15 12:18:31;;;;;;;4.85;2.63;;;29.70;46.80;;;;;;5074217;28;20032;-76
2021/06/15 12:21:17;;;;;;;5.63;2.63;;;30.00;46.10;;;;;;5074118;28;20036;-75
2021/06/15 12:23:47;;;;;;;6.03;3.00;;;30.00;47.40;;;;;;5073885;28;20496;-75
2021/06/15 12:26:20;;;;;;;3.65;2.50;;;29.80;47.50;;;;;;5074352;28;20055;-74
2021/06/15 12:28:55;;;;;;;5.07;2.42;;;29.50;47.30;;;;;;5073964;28;20484;-75
2021/06/15 12:31:38;;;;;;;7.80;3.10;;;29.50;48.10;;;;;;5074939;28;20048;-76
2021/06/15 12:34:07;;;;;;;6.07;3.50;;;29.50;47.30;;;;;;5077439;28;20047;-74
2021/06/15 12:36:36;;;;;;;4.20;2.97;;;29.70;46.30;;;;;;5073789;28;20032;-75
2021/06/15 12:39:20;;;;;;;3.90;2.42;;;29.70;48.40;;;;;;5073595;28;20044;-75
2021/06/15 12:42:01;;;;;;;5.18;3.08;;;30.10;47.30;;;;;;5073482;28;20036;-75
2021/06/15 12:44:42;;;;;;;4.93;2.70;;;30.00;46.90;;;;;;5082984;28;20028;-73
2021/06/15 12:47:11;;;;;;;6.18;3.53;;;29.80;46.90;;;;;;5076093;28;20032;-75
2021/06/15 12:49:47;;;;;;;7.00;3.13;;;29.80;48.10;;;;;;5076707;28;20032;-76
2021/06/15 12:52:13;;;;;;;4.65;2.78;;;30.00;46.50;;;;;;5083766;28;20044;-76
2021/06/15 12:54:42;;;;;;;4.88;2.90;;;29.70;46.50;;;;;;5083283;28;20465;-75
2021/06/15 12:57:20;;;;;;;4.70;2.97;;;29.50;46.20;;;;;;5076792;28;20043;-74
2021/06/15 13:00:04;;;;;;;5.10;2.65;;;29.60;46.90;;;;;;5085922;28;20381;-74
2021/06/15 13:02:30;;;;;;;4.85;2.42;;;29.90;46.70;;;;;;5077428;28;20029;-74
2021/06/15 13:05:06;;;;;;;5.78;2.55;;;30.10;46.70;;;;;;5076302;28;20052;-74
2021/06/15 13:07:33;;;;;;;5.07;2.50;;;30.40;46.80;;;;;;5075196;28;20051;-74
2021/06/15 13:10:17;;;;;;;3.80;2.42;;;30.20;46.30;;;;;;5073993;28;20051;-74
2021/06/15 13:12:48;;;;;;;4.85;2.70;;;30.20;46.40;;;;;;5072988;28;20044;-73
2021/06/15 13:15:17;;;;;;;6.78;2.67;;;30.30;46.50;;;;;;5082943;28;20465;-75
2021/06/15 13:17:55;;;;;;;9.15;3.20;;;30.30;46.10;;;;;;5072303;28;20036;-76
2021/06/15 13:20:26;;;;;;;7.97;2.80;;;30.50;46.10;;;;;;5072887;28;20048;-75
2021/06/15 13:22:52;;;;;;;9.25;2.72;;;30.50;45.70;;;;;;5075521;28;20024;-75
2021/06/15 13:25:33;;;;;;;4.18;2.80;;;29.90;45.30;;;;;;5085070;28;20036;-75
2021/06/15 13:28:01;;;;;;;6.68;2.97;;;29.90;45.80;;;;;;5079966;28;20389;-74
2021/06/15 13:30:32;;;;;;;2.83;2.30;;;30.10;45.70;;;;;;5078527;28;20032;-76
2021/06/15 13:33:26;;;;;;;3.97;2.92;;;29.80;44.90;;;;;;5072200;28;20048;-76
2021/06/15 13:35:56;;;;;;;6.28;2.50;;;29.70;45.20;;;;;;5084403;28;20040;-75
2021/06/15 13:38:24;;;;;;;4.93;2.70;;;30.10;46.00;;;;;;5070401;28;20035;-76
2021/06/15 13:40:54;;;;;;;4.35;2.58;;;30.70;45.40;;;;;;5079343;28;20032;-76
2021/06/15 13:43:22;;;;;;;4.03;2.80;;;30.60;45.10;;;;;;5070531;28;20048;-74
2021/06/15 13:45:53;;;;;;;6.95;2.83;;;30.50;45.70;;;;;;5074322;28;20424;-73
2021/06/15 13:48:21;;;;;;;7.40;3.00;;;30.70;45.60;;;;;;5087938;28;20040;-74
2021/06/15 13:50:49;;;;;;;6.20;3.28;;;30.60;46.00;;;;;;5071134;28;20036;-72